createdAt,value
2023-04-08T00:01:37.389Z,99490.59
2023-04-08T00:04:06.093Z,99494.66
2023-04-08T00:06:34.929Z,99497.94
2023-04-08T00:09:04.340Z,99500.47
2023-04-08T00:11:32.956Z,99508.09
2023-04-08T00:14:02.025Z,99512.91
2023-04-08T00:16:30.425Z,99511.34
2023-04-08T00:19:01.467Z,99511.81
2023-04-08T00:21:29.896Z,99526.59
2023-04-08T00:23:58.216Z,99530.91
2023-04-08T00:26:27.393Z,99532.91
2023-04-08T00:28:56.861Z,99534.91
2023-04-08T00:31:25.408Z,99537.66
2023-04-08T00:33:53.916Z,99545.28
2023-04-08T00:36:22.263Z,99548.81
2023-04-08T00:38:54.060Z,99555.16
2023-04-08T00:41:22.533Z,99555.84
2023-04-08T00:43:50.955Z,99562.72
2023-04-08T00:46:19.748Z,99569.56
2023-04-08T00:48:50.405Z,99581.00
2023-04-08T00:51:19.525Z,99583.03
2023-04-08T00:53:47.928Z,99583.75
2023-04-08T00:56:16.315Z,99590.06
2023-04-08T00:58:46.568Z,99589.25
2023-04-08T01:01:24.945Z,99598.38
2023-04-08T01:04:08.566Z,99604.50
2023-04-08T01:06:36.909Z,99598.03
2023-04-08T01:09:07.285Z,99608.47
2023-04-08T01:11:39.763Z,99611.00
2023-04-08T01:14:11.219Z,99612.22
2023-04-08T01:16:43.705Z,99621.66
2023-04-08T01:19:25.711Z,99627.75
2023-04-08T01:21:56.395Z,99627.47
2023-04-08T01:24:35.123Z,99637.91
2023-04-08T01:27:05.253Z,99646.88
2023-04-08T01:29:35.289Z,99645.25
2023-04-08T01:32:04.650Z,99649.31
2023-04-08T01:34:34.395Z,99647.16
2023-04-08T01:37:05.294Z,99654.03
2023-04-08T01:39:35.108Z,99659.59
2023-04-08T01:42:04.593Z,99665.16
2023-04-08T01:44:34.561Z,99667.13
2023-04-08T01:47:04.679Z,99666.28
2023-04-08T01:49:33.884Z,99676.22
2023-04-08T01:52:02.914Z,99683.84
2023-04-08T01:54:31.308Z,99683.03
2023-04-08T01:57:02.560Z,99684.47
2023-04-08T01:59:36.440Z,99691.03
2023-04-08T02:02:08.435Z,99700.16
2023-04-08T02:04:37.790Z,99703.66
2023-04-08T02:07:07.176Z,99703.56
2023-04-08T02:09:35.829Z,99712.19
2023-04-08T02:12:04.335Z,99719.06
2023-04-08T02:14:33.209Z,99714.06
2023-04-08T02:17:11.886Z,99716.28
2023-04-08T02:19:50.150Z,99720.75
2023-04-08T02:22:31.359Z,99715.25
2023-04-08T02:25:01.757Z,99723.63
2023-04-08T02:27:34.938Z,99721.47
2023-04-08T02:30:06.920Z,99720.81
2023-04-08T02:32:36.925Z,99720.19
2023-04-08T02:35:06.602Z,99728.22
2023-04-08T02:37:35.481Z,99725.53
2023-04-08T02:40:04.097Z,99728.72
2023-04-08T02:42:32.496Z,99722.59
2023-04-08T02:45:00.846Z,99721.19
2023-04-08T02:47:29.218Z,99725.97
2023-04-08T02:49:57.575Z,99723.81
2023-04-08T02:52:25.935Z,99732.94
2023-04-08T02:54:54.276Z,99727.91
2023-04-08T02:57:22.782Z,99725.19
2023-04-08T02:59:51.155Z,99732.28
2023-04-08T03:02:19.698Z,99725.19
2023-04-08T03:04:48.065Z,99719.38
2023-04-08T03:07:16.650Z,99724.16
2023-04-08T03:09:45.011Z,99725.34
2023-04-08T03:12:13.396Z,99726.53
2023-04-08T03:14:41.839Z,99720.97
2023-04-08T03:17:10.267Z,99724.97
2023-04-08T03:19:38.669Z,99718.41
2023-04-08T03:22:07.171Z,99720.56
2023-04-08T03:24:35.488Z,99724.81
2023-04-08T03:27:04.939Z,99719.22
2023-04-08T03:29:33.684Z,99719.81
2023-04-08T03:32:02.395Z,99704.75
2023-04-08T03:34:30.812Z,99699.50
2023-04-08T03:36:59.142Z,99698.97
2023-04-08T03:39:27.687Z,99692.38
2023-04-08T03:41:56.075Z,99692.22
2023-04-08T03:44:24.556Z,99684.13
2023-04-08T03:46:52.943Z,99674.75
2023-04-08T03:49:21.422Z,99673.28
2023-04-08T03:51:49.819Z,99671.06
2023-04-08T03:54:18.201Z,99659.00
2023-04-08T03:56:46.586Z,99663.19
2023-04-08T03:59:14.966Z,99655.81
2023-04-08T04:01:43.357Z,99646.97
2023-04-08T04:04:12.224Z,99655.13
2023-04-08T04:06:40.716Z,99645.69
2023-04-08T04:09:09.145Z,99637.00
2023-04-08T04:11:37.527Z,99639.72
2023-04-08T04:14:05.991Z,99642.94
2023-04-08T04:16:34.325Z,99641.06
2023-04-08T04:19:02.828Z,99626.31
2023-04-08T04:21:31.335Z,99627.28
2023-04-08T04:23:59.692Z,99628.41
2023-04-08T04:26:28.066Z,99630.31
2023-04-08T04:28:56.905Z,99615.38
2023-04-08T04:31:29.124Z,99617.50
2023-04-08T04:33:57.566Z,99606.53
2023-04-08T04:36:26.078Z,99599.16
2023-04-08T04:38:54.566Z,99598.44
2023-04-08T04:41:23.340Z,99587.63
2023-04-08T04:43:51.951Z,99583.31
2023-04-08T04:46:20.331Z,99580.28
2023-04-08T04:48:49.032Z,99571.56
2023-04-08T04:51:17.592Z,99572.69
2023-04-08T04:53:45.904Z,99568.72
2023-04-08T04:56:14.359Z,99567.97
2023-04-08T04:58:43.274Z,99563.22
2023-04-08T05:01:11.981Z,99561.16
2023-04-08T05:03:40.528Z,99551.84
2023-04-08T05:06:08.875Z,99543.31
2023-04-08T05:08:37.678Z,99532.31
2023-04-08T05:11:06.469Z,99525.47
2023-04-08T05:13:34.823Z,99516.38
2023-04-08T05:16:03.485Z,99513.88
2023-04-08T05:18:31.911Z,99507.22
2023-04-08T05:21:00.344Z,99508.94
2023-04-08T05:23:28.700Z,99503.97
2023-04-08T05:25:57.697Z,99500.53
2023-04-08T05:28:26.097Z,99499.38
2023-04-08T05:30:55.501Z,99496.66
2023-04-08T05:33:23.894Z,99502.09
2023-04-08T05:35:52.281Z,99487.31
2023-04-08T05:38:20.756Z,99482.72
2023-04-08T05:40:49.161Z,99484.41
2023-04-08T05:43:17.572Z,99488.19
2023-04-08T05:45:45.937Z,99487.63
2023-04-08T05:48:14.420Z,99485.91
2023-04-08T05:50:42.952Z,99484.94
2023-04-08T05:53:11.807Z,99477.94
2023-04-08T05:55:40.183Z,99469.03
2023-04-08T05:58:08.725Z,99457.66
2023-04-08T06:00:37.106Z,99455.56
2023-04-08T06:03:05.705Z,99453.47
2023-04-08T06:05:34.344Z,99442.81
2023-04-08T06:08:02.692Z,99439.22
2023-04-08T06:10:31.031Z,99427.09
2023-04-08T06:12:59.395Z,99425.16
2023-04-08T06:15:28.935Z,99420.06
2023-04-08T06:17:57.314Z,99414.94
2023-04-08T06:20:25.792Z,99409.06
2023-04-08T06:22:54.160Z,99403.34
2023-04-08T06:25:22.548Z,99382.50
2023-04-08T06:27:50.911Z,99390.66
2023-04-08T06:30:19.323Z,99379.44
2023-04-08T06:32:50.359Z,99377.16
2023-04-08T06:35:19.481Z,99373.13
2023-04-08T06:37:47.835Z,99372.53
2023-04-08T06:40:16.358Z,99366.09
2023-04-08T06:42:45.517Z,99358.72
2023-04-08T06:45:13.869Z,99356.47
2023-04-08T06:47:42.309Z,99359.31
2023-04-08T06:50:11.305Z,99350.00
2023-04-08T06:52:39.829Z,99352.28
2023-04-08T06:55:08.383Z,99334.28
2023-04-08T06:57:36.695Z,99334.47
2023-04-08T07:00:05.580Z,99327.09
2023-04-08T07:02:34.029Z,99327.09
2023-04-08T07:05:02.580Z,99324.06
2023-04-08T07:07:31.207Z,99320.81
2023-04-08T07:09:59.546Z,99312.47
2023-04-08T07:12:27.890Z,99300.69
2023-04-08T07:14:56.287Z,99295.34
2023-04-08T07:17:24.642Z,99288.47
2023-04-08T07:19:53.227Z,99283.69
2023-04-08T07:22:21.925Z,99286.53
2023-04-08T07:24:50.780Z,99285.97
2023-04-08T07:27:19.183Z,99281.03
2023-04-08T07:29:49.813Z,99265.28
2023-04-08T07:32:18.458Z,99273.66
2023-04-08T07:34:46.837Z,99274.06
2023-04-08T07:37:15.197Z,99275.41
2023-04-08T07:39:43.574Z,99264.03
2023-04-08T07:42:11.957Z,99257.41
2023-04-08T07:44:40.404Z,99257.22
2023-04-08T07:47:08.773Z,99255.69
2023-04-08T07:49:37.671Z,99249.09
2023-04-08T07:52:07.296Z,99241.69
2023-04-08T07:54:35.834Z,99239.44
2023-04-08T07:57:04.242Z,99238.50
2023-04-08T07:59:33.850Z,99239.09
2023-04-08T08:02:02.388Z,99241.59
2023-04-08T08:04:30.960Z,99232.16
2023-04-08T08:06:59.491Z,99220.44
2023-04-08T08:09:27.848Z,99215.75
2023-04-08T08:11:56.260Z,99208.75
2023-04-08T08:14:24.651Z,99209.78
2023-04-08T08:16:53.615Z,99196.72
2023-04-08T08:19:22.757Z,99203.56
2023-04-08T08:21:51.503Z,99205.50
2023-04-08T08:24:19.886Z,99210.66
2023-04-08T08:26:50.169Z,99208.78
2023-04-08T08:29:18.569Z,99216.19
2023-04-08T08:31:47.195Z,99213.59
2023-04-08T08:34:16.008Z,99203.22
2023-04-08T08:36:44.443Z,99200.97
2023-04-08T08:39:13.500Z,99205.72
2023-04-08T08:41:43.252Z,99204.63
2023-04-08T08:44:12.257Z,99222.06
2023-04-08T08:46:49.022Z,99220.38
2023-04-08T08:49:17.478Z,99222.88
2023-04-08T08:51:48.314Z,99219.69
2023-04-08T08:54:17.114Z,99211.53
2023-04-08T08:56:45.478Z,99218.97
2023-04-08T08:59:13.890Z,99220.53
2023-04-08T09:01:42.689Z,99210.84
2023-04-08T09:04:13.251Z,99211.09
2023-04-08T09:06:42.343Z,99207.13
2023-04-08T09:09:13.482Z,99206.97
2023-04-08T09:11:43.611Z,99210.22
2023-04-08T09:14:25.882Z,99227.47
2023-04-08T09:16:54.889Z,99225.59
2023-04-08T09:19:23.355Z,99223.91
2023-04-08T09:22:14.214Z,99219.19
2023-04-08T09:24:42.893Z,99221.06
2023-04-08T09:27:11.388Z,99224.88
2023-04-08T09:29:40.121Z,99223.75
2023-04-08T09:32:08.743Z,99227.00
2023-04-08T09:34:37.592Z,99217.34
2023-04-08T09:37:06.013Z,99212.06
2023-04-08T09:39:34.505Z,99198.84
2023-04-08T09:42:09.192Z,99199.22
2023-04-08T09:44:39.231Z,99196.78
2023-04-08T09:47:20.301Z,99202.09
2023-04-08T09:49:56.446Z,99208.91
2023-04-08T09:52:50.755Z,99202.66
2023-04-08T09:55:24.664Z,99198.13
2023-04-08T09:58:28.587Z,99194.16
2023-04-08T10:00:57.138Z,99200.03
2023-04-08T10:03:41.441Z,99203.25
2023-04-08T10:06:12.969Z,99204.97
2023-04-08T10:08:41.834Z,99208.75
2023-04-08T10:11:10.503Z,99214.06
2023-04-08T10:13:39.309Z,99221.44
2023-04-08T10:16:28.463Z,99229.38
2023-04-08T10:18:58.311Z,99217.66
2023-04-08T10:21:37.675Z,99209.34
2023-04-08T10:24:13.296Z,99209.72
2023-04-08T10:26:44.308Z,99212.91
2023-04-08T10:29:31.930Z,99228.97
2023-04-08T10:32:00.540Z,99235.03
2023-04-08T10:34:29.280Z,99233.88
2023-04-08T10:37:00.001Z,99230.50
2023-04-08T10:39:28.486Z,99233.47
2023-04-08T10:41:57.382Z,99235.19
2023-04-08T10:44:28.651Z,99229.69
2023-04-08T10:46:57.571Z,99238.56
2023-04-08T10:49:34.836Z,99243.66
2023-04-08T10:52:08.791Z,99250.06
2023-04-08T10:54:39.404Z,99250.78
2023-04-08T10:57:08.481Z,99243.00
2023-04-08T10:59:37.868Z,99238.84
2023-04-08T11:02:06.343Z,99247.50
2023-04-08T11:04:34.923Z,99236.91
2023-04-08T11:07:09.065Z,99238.59
2023-04-08T11:09:37.498Z,99236.69
2023-04-08T11:12:06.203Z,99230.44
2023-04-08T11:14:34.810Z,99229.63
2023-04-08T11:17:03.300Z,99222.03
2023-04-08T11:19:31.744Z,99216.53
2023-04-08T11:22:00.285Z,99217.44
2023-04-08T11:24:29.361Z,99230.97
2023-04-08T11:26:58.152Z,99217.75
2023-04-08T11:29:26.592Z,99210.94
2023-04-08T11:31:55.073Z,99204.88
2023-04-08T11:34:26.737Z,99205.06
2023-04-08T11:36:57.809Z,99212.38
2023-04-08T11:39:27.348Z,99231.75
2023-04-08T11:41:56.331Z,99229.06
2023-04-08T11:44:34.455Z,99242.78
2023-04-08T11:47:03.935Z,99238.81
2023-04-08T11:49:46.704Z,99230.66
2023-04-08T11:52:15.512Z,99230.81
2023-04-08T11:54:44.587Z,99228.13
2023-04-08T11:57:13.033Z,99236.19
2023-04-08T11:59:41.427Z,99239.38
2023-04-08T12:02:10.388Z,99238.97
2023-04-08T12:04:38.985Z,99253.44
2023-04-08T12:07:07.399Z,99256.63
2023-04-08T12:09:35.790Z,99254.91
2023-04-08T12:12:04.355Z,99271.41
2023-04-08T12:14:32.719Z,99283.81
2023-04-08T12:17:01.040Z,99301.88
2023-04-08T12:19:29.864Z,99324.28
2023-04-08T12:21:59.249Z,99329.47
2023-04-08T12:24:27.693Z,99341.34
2023-04-08T12:26:57.304Z,99351.66
2023-04-08T12:29:25.696Z,99352.97
2023-04-08T12:31:54.335Z,99362.00
2023-04-08T12:34:23.518Z,99377.22
2023-04-08T12:36:52.025Z,99378.88
2023-04-08T12:39:20.874Z,99377.09
2023-04-08T12:41:49.618Z,99381.78
2023-04-08T12:44:18.246Z,99384.19
2023-04-08T12:46:47.200Z,99393.19
2023-04-08T12:49:15.662Z,99402.22
2023-04-08T12:51:44.039Z,99399.72
2023-04-08T12:54:12.452Z,99402.13
2023-04-08T12:56:40.871Z,99409.63
2023-04-08T12:59:09.181Z,99413.00
2023-04-08T13:01:37.625Z,99426.13
2023-04-08T13:04:06.314Z,99431.53
2023-04-08T13:06:34.728Z,99436.97
2023-04-08T13:09:03.133Z,99441.66
2023-04-08T13:11:31.907Z,99467.59
2023-04-08T13:14:00.356Z,99464.34
2023-04-08T13:16:28.829Z,99471.84
2023-04-08T13:18:57.172Z,99481.34
2023-04-08T13:21:25.775Z,99480.38
2023-04-08T13:23:54.110Z,99491.44
2023-04-08T13:26:22.502Z,99499.69
2023-04-08T13:28:57.297Z,99498.94
2023-04-08T13:31:28.403Z,99515.13
2023-04-08T13:33:58.217Z,99517.19
2023-04-08T13:36:29.446Z,99526.19
2023-04-08T13:38:58.636Z,99526.94
2023-04-08T13:41:28.964Z,99525.66
2023-04-08T13:43:57.765Z,99521.31
2023-04-08T13:46:26.346Z,99535.16
2023-04-08T13:48:54.943Z,99544.16
2023-04-08T13:51:23.479Z,99553.19
2023-04-08T13:53:52.102Z,99555.78
2023-04-08T13:56:20.485Z,99547.84
2023-04-08T13:58:56.471Z,99550.44
2023-04-08T14:01:25.955Z,99558.69
2023-04-08T14:03:54.476Z,99564.13
2023-04-08T14:06:22.948Z,99564.66
2023-04-08T14:08:51.966Z,99567.25
2023-04-08T14:11:20.481Z,99564.44
2023-04-08T14:13:48.819Z,99574.19
2023-04-08T14:16:17.790Z,99578.53
2023-04-08T14:18:46.406Z,99578.31
2023-04-08T14:21:16.653Z,99588.84
2023-04-08T14:23:45.079Z,99595.03
2023-04-08T14:26:13.394Z,99594.03
2023-04-08T14:28:41.966Z,99588.94
2023-04-08T14:31:10.407Z,99597.16
2023-04-08T14:33:40.072Z,99594.84
2023-04-08T14:36:08.660Z,99596.69
2023-04-08T14:38:37.249Z,99599.28
2023-04-08T14:41:05.659Z,99593.94
2023-04-08T14:43:34.019Z,99597.31
2023-04-08T14:46:02.388Z,99598.91
2023-04-08T14:48:31.756Z,99589.22
2023-04-08T14:51:00.992Z,99587.47
2023-04-08T14:53:29.396Z,99584.94
2023-04-08T14:55:57.737Z,99578.28
2023-04-08T14:58:26.414Z,99575.25
2023-04-08T15:00:55.048Z,99580.13
2023-04-08T15:03:23.790Z,99584.25
2023-04-08T15:05:52.239Z,99578.38
2023-04-08T15:08:20.608Z,99580.44
2023-04-08T15:10:49.023Z,99571.75
2023-04-08T15:13:17.636Z,99578.69
2023-04-08T15:15:46.093Z,99583.31
2023-04-08T15:18:14.474Z,99591.56
2023-04-08T15:20:42.892Z,99590.03
2023-04-08T15:23:11.268Z,99580.81
2023-04-08T15:25:39.807Z,99584.94
2023-04-08T15:28:08.918Z,99582.13
2023-04-08T15:30:37.335Z,99582.41
2023-04-08T15:33:06.117Z,99589.56
2023-04-08T15:35:34.735Z,99594.22
2023-04-08T15:38:03.395Z,99596.06
2023-04-08T15:40:35.208Z,99595.78
2023-04-08T15:43:04.819Z,99592.75
2023-04-08T15:45:34.345Z,99591.00
2023-04-08T15:48:02.715Z,99584.59
2023-04-08T15:50:31.669Z,99579.25
2023-04-08T15:53:00.061Z,99576.97
2023-04-08T15:55:28.417Z,99584.44
2023-04-08T15:57:58.062Z,99572.19
2023-04-08T16:02:55.518Z,99577.59
2023-04-08T16:05:24.040Z,99575.28
2023-04-08T16:07:52.771Z,99566.59
2023-04-08T16:10:21.234Z,99569.19
2023-04-08T16:12:50.268Z,99568.19
2023-04-08T16:15:18.677Z,99569.44
2023-04-08T16:17:53.462Z,99569.97
2023-04-08T16:20:22.683Z,99566.63
2023-04-08T16:22:51.338Z,99561.00
2023-04-08T16:25:19.738Z,99548.94
2023-04-08T16:27:48.829Z,99551.28
2023-04-08T16:30:17.348Z,99545.91
2023-04-08T16:32:46.063Z,99547.16
2023-04-08T16:35:15.085Z,99535.13
2023-04-08T16:37:43.506Z,99536.41
2023-04-08T16:40:12.357Z,99530.53
2023-04-08T16:42:40.717Z,99532.34
2023-04-08T16:45:09.846Z,99534.94
2023-04-08T16:47:40.183Z,99528.31
2023-04-08T16:50:10.138Z,99528.09
2023-04-08T16:52:38.583Z,99532.72
2023-04-08T16:55:07.582Z,99528.91
2023-04-08T16:57:35.878Z,99529.97
2023-04-08T17:00:04.546Z,99532.03
2023-04-08T17:02:33.022Z,99529.75
2023-04-08T17:05:01.664Z,99529.50
2023-04-08T17:07:30.463Z,99530.81
2023-04-08T17:09:58.843Z,99533.38
2023-04-08T17:12:27.953Z,99539.03
2023-04-08T17:14:56.346Z,99528.25
2023-04-08T17:17:24.683Z,99528.78
2023-04-08T17:19:53.102Z,99528.78
2023-04-08T17:22:22.462Z,99537.78
2023-04-08T17:24:50.885Z,99530.63
2023-04-08T17:27:19.276Z,99527.56
2023-04-08T17:29:47.700Z,99524.50
2023-04-08T17:32:16.490Z,99529.38
2023-04-08T17:34:44.829Z,99522.22
2023-04-08T17:37:13.192Z,99533.25
2023-04-08T17:39:41.921Z,99525.34
2023-04-08T17:42:10.385Z,99523.06
2023-04-08T17:44:39.366Z,99516.66
2023-04-08T17:47:07.740Z,99523.59
2023-04-08T17:49:36.477Z,99524.34
2023-04-08T17:52:04.916Z,99524.13
2023-04-08T17:54:35.407Z,99525.41
2023-04-08T17:57:04.243Z,99525.41
2023-04-08T17:59:32.694Z,99531.03
2023-04-08T18:02:01.202Z,99525.94
2023-04-08T18:04:30.817Z,99528.22
2023-04-08T18:06:59.203Z,99530.28
2023-04-08T18:09:27.572Z,99529.50
2023-04-08T18:11:55.953Z,99521.59
2023-04-08T18:14:24.310Z,99532.09
2023-04-08T18:16:52.781Z,99526.22
2023-04-08T18:19:21.183Z,99530.56
2023-04-08T18:21:50.147Z,99536.19
2023-04-08T18:24:18.510Z,99534.69
2023-04-08T18:26:54.326Z,99533.16
2023-04-08T18:29:26.342Z,99527.53
2023-04-08T18:31:54.755Z,99519.84
2023-04-08T18:34:25.526Z,99519.84
2023-04-08T18:36:54.121Z,99520.38
2023-04-08T18:39:22.530Z,99523.19
2023-04-08T18:41:50.894Z,99518.84
2023-04-08T18:44:19.282Z,99516.53
2023-04-08T18:46:47.657Z,99511.66
2023-04-08T18:49:16.385Z,99512.94
2023-04-08T18:51:55.444Z,99514.25
2023-04-08T18:54:30.671Z,99515.00
2023-04-08T18:56:59.361Z,99516.28
2023-04-08T18:59:30.918Z,99509.38
2023-04-08T19:01:59.486Z,99511.94
2023-04-08T19:04:28.245Z,99508.38
2023-04-08T19:06:57.317Z,99510.41
2023-04-08T19:09:25.756Z,99510.16
2023-04-08T19:11:54.509Z,99511.47
2023-04-08T19:14:22.947Z,99505.06
2023-04-08T19:16:51.287Z,99497.91
2023-04-08T19:19:19.688Z,99504.06
2023-04-08T19:21:48.910Z,99495.41
2023-04-08T19:24:17.407Z,99496.69
2023-04-08T19:26:45.817Z,99498.72
2023-04-08T19:29:14.790Z,99496.44
2023-04-08T19:31:43.348Z,99485.72
2023-04-08T19:34:12.233Z,99484.19
2023-04-08T19:36:40.594Z,99486.78
2023-04-08T19:39:08.979Z,99490.88
2023-04-08T19:41:37.696Z,99487.06
2023-04-08T19:44:06.345Z,99484.78
2023-04-08T19:46:34.936Z,99482.22
2023-04-08T19:49:03.385Z,99488.91
2023-04-08T19:51:33.428Z,99487.16
2023-04-08T19:54:01.781Z,99486.16
2023-04-08T19:56:34.747Z,99489.25
2023-04-08T19:59:03.208Z,99477.78
2023-04-08T20:01:31.846Z,99479.34
2023-04-08T20:04:00.329Z,99477.06
2023-04-08T20:06:29.257Z,99478.13
2023-04-08T20:08:58.151Z,99480.66
2023-04-08T20:11:26.588Z,99484.75
2023-04-08T20:13:55.097Z,99487.09
2023-04-08T20:16:23.885Z,99488.91
2023-04-08T20:18:52.586Z,99491.50
2023-04-08T20:21:21.254Z,99498.94
2023-04-08T20:23:49.582Z,99502.75
2023-04-08T20:26:17.938Z,99498.94
2023-04-08T20:28:47.106Z,99497.19
2023-04-08T20:31:15.666Z,99495.41
2023-04-08T20:36:33.703Z,99490.84
2023-04-08T20:39:02.107Z,99494.66
2023-04-08T20:41:30.545Z,99496.47
2023-04-08T20:43:58.910Z,99499.06
2023-04-08T20:46:27.563Z,99492.44
2023-04-08T20:48:55.929Z,99499.09
2023-04-08T20:51:24.668Z,99490.41
2023-04-08T20:53:53.063Z,99501.94
2023-04-08T20:56:22.044Z,99503.00
2023-04-08T20:58:50.809Z,99500.69
2023-04-08T21:01:19.482Z,99506.84
2023-04-08T21:03:47.919Z,99513.75
2023-04-08T21:06:20.581Z,99516.81
2023-04-08T21:08:50.112Z,99507.38
2023-04-08T21:11:19.064Z,99505.59
2023-04-08T21:13:49.089Z,99507.41
2023-04-08T21:16:18.096Z,99509.97
2023-04-08T21:18:46.485Z,99513.81
2023-04-08T21:21:15.370Z,99517.91
2023-04-08T21:23:43.691Z,99521.00
2023-04-08T21:26:14.222Z,99528.41
2023-04-08T21:28:42.828Z,99532.25
2023-04-08T21:31:12.284Z,99539.13
2023-04-08T21:33:41.620Z,99542.19
2023-04-08T21:36:10.133Z,99553.19
2023-04-08T21:38:38.489Z,99558.56
2023-04-08T21:41:06.922Z,99559.59
2023-04-08T21:43:35.329Z,99567.00
2023-04-08T21:46:03.820Z,99557.81
2023-04-08T21:48:32.268Z,99559.63
2023-04-08T21:51:00.618Z,99565.22
2023-04-08T21:53:29.073Z,99578.50
2023-04-08T21:55:57.623Z,99570.59
2023-04-08T21:58:25.994Z,99575.47
2023-04-08T22:00:54.373Z,99575.22
2023-04-08T22:03:22.937Z,99575.72
2023-04-08T22:05:51.860Z,99584.66
2023-04-08T22:08:20.321Z,99588.75
2023-04-08T22:10:48.794Z,99592.06
2023-04-08T22:13:19.666Z,99588.50
2023-04-08T22:15:47.994Z,99592.59
2023-04-08T22:18:16.502Z,99586.22
2023-04-08T22:20:44.853Z,99586.69
2023-04-08T22:23:13.187Z,99592.31
2023-04-08T22:25:41.606Z,99592.06
2023-04-08T22:28:09.953Z,99588.50
2023-04-08T22:30:38.285Z,99591.06
2023-04-08T22:33:06.656Z,99588.75
2023-04-08T22:35:35.212Z,99592.84
2023-04-08T22:38:03.728Z,99594.13
2023-04-08T22:40:32.263Z,99598.72
2023-04-08T22:43:00.612Z,99596.44
2023-04-08T22:45:28.947Z,99596.19
2023-04-08T22:47:57.359Z,99595.94
2023-04-08T22:50:25.755Z,99593.38
2023-04-08T22:52:54.084Z,99603.09
2023-04-08T22:55:22.429Z,99607.69
2023-04-08T22:57:50.827Z,99614.56
2023-04-08T23:00:19.400Z,99615.56
2023-04-08T23:02:47.901Z,99628.84
2023-04-08T23:05:16.477Z,99627.31
2023-04-08T23:07:44.909Z,99624.25
2023-04-08T23:10:13.302Z,99626.81
2023-04-08T23:12:42.644Z,99637.75
2023-04-08T23:15:11.294Z,99644.63
2023-04-08T23:17:39.664Z,99638.25
2023-04-08T23:20:08.599Z,99652.03
2023-04-08T23:22:37.275Z,99654.06
2023-04-08T23:25:05.884Z,99664.53
2023-04-08T23:27:34.502Z,99667.09
2023-04-08T23:30:06.499Z,99667.34
2023-04-08T23:32:35.761Z,99678.06
2023-04-08T23:35:04.688Z,99676.00
2023-04-08T23:37:33.082Z,99690.81
2023-04-08T23:40:01.498Z,99685.47
2023-04-08T23:42:29.869Z,99685.75
2023-04-08T23:44:58.193Z,99690.84
2023-04-08T23:47:26.690Z,99689.06
2023-04-08T23:49:55.079Z,99694.16
2023-04-08T23:52:23.462Z,99696.97
2023-04-08T23:54:52.438Z,99705.66
2023-04-08T23:57:23.811Z,99712.81
2023-04-08T23:59:52.286Z,99718.16
